KFFT/FFT METAR and TAF weather

Enter ICAO airport designator
Station Type Date Time Source
KFFT METAR 2019/09/21 03:53 UTC NOAA

KFFT 210353Z AUTO 22004KT 10SM CLR 22/18 A3021 RMK AO2 SLP222 T02170178


Station Type Date Time Source
KFFT Decoded METAR 2019/09/21 03:53 UTC NOAA

FRANKFORT CAPITAL CITY AIRPORT , KY, United States (KFFT) 38-11N 84-54W 236M
Sep 20, 2019 - 11:53 PM EDT / 2019.09.21 0353 UTC
Wind: from the SW (220 degrees) at 5 MPH (4 KT):0
Visibility: 10 mile(s):0
Sky conditions: clear
Temperature: 71.1 F (21.7 C)
Dew Point: 64.0 F (17.8 C)
Relative Humidity: 78%
Pressure (altimeter): 30.21 in. Hg (1023 hPa)
ob: KFFT 210353Z AUTO 22004KT 10SM CLR 22/18 A3021 RMK AO2 SLP222 T02170178
cycle: 4

Station Type Date Time Source
KFFT TAF UTC NOAA

Error!

Example: see airport list